Terminal Aerodrome Forecast
Issued by NWS Albany, NY

Home | Current Version | Previous Version | Text Only | Print | Product List | Glossary On
Versions: 1 2 3 4 5 6 7 8 9 10 11 12 13 14 15 16 17 18 19
372
FTUS41 KALY 242331
TAFPOU
TAF
KPOU 242331Z 2500/2524 15007KT P6SM FEW050 SCT200
     FM250700 VRB03KT 3SM BR OVC015
     FM251000 17003KT 2SM BR OVC008
     FM251500 17008KT 6SM BR SCT015 BKN035
     FM252200 24015G25KT 2SM SHRA BR BKN025 OVC040=

USA.gov is the U.S. government's official web portal to all federal, state and local government web resources and services.